sensor_id;sensor_type;location;lat;lon;timestamp;temperature;humidity
30999;DHT22;20549;50.042;8.968;2022-12-18T00:01:02;-4.20;86.30
30999;DHT22;20549;50.042;8.968;2022-12-18T00:03:27;-4.30;86.20
30999;DHT22;20549;50.042;8.968;2022-12-18T00:05:54;-4.40;86.20
30999;DHT22;20549;50.042;8.968;2022-12-18T00:08:21;-4.40;86.20
30999;DHT22;20549;50.042;8.968;2022-12-18T00:10:47;-4.50;86.30
30999;DHT22;20549;50.042;8.968;2022-12-18T00:13:14;-4.50;87.20
30999;DHT22;20549;50.042;8.968;2022-12-18T00:15:40;-4.60;86.70
30999;DHT22;20549;50.042;8.968;2022-12-18T00:18:07;-4.70;86.80
30999;DHT22;20549;50.042;8.968;2022-12-18T00:20:37;-4.70;87.00
30999;DHT22;20549;50.042;8.968;2022-12-18T00:23:03;-4.70;87.10
30999;DHT22;20549;50.042;8.968;2022-12-18T00:25:31;-4.80;87.20
30999;DHT22;20549;50.042;8.968;2022-12-18T00:27:56;-4.80;87.30
30999;DHT22;20549;50.042;8.968;2022-12-18T00:30:23;-4.80;87.50
30999;DHT22;20549;50.042;8.968;2022-12-18T00:32:49;-4.80;87.70
30999;DHT22;20549;50.042;8.968;2022-12-18T00:35:16;-4.80;87.90
30999;DHT22;20549;50.042;8.968;2022-12-18T00:37:43;-4.80;88.10
30999;DHT22;20549;50.042;8.968;2022-12-18T00:40:09;-4.80;88.30
30999;DHT22;20549;50.042;8.968;2022-12-18T00:42:36;-4.80;88.60
30999;DHT22;20549;50.042;8.968;2022-12-18T00:45:22;-4.80;88.80
30999;DHT22;20549;50.042;8.968;2022-12-18T00:47:47;-4.80;88.90
30999;DHT22;20549;50.042;8.968;2022-12-18T00:50:14;-4.70;89.10
30999;DHT22;20549;50.042;8.968;2022-12-18T00:52:41;-4.70;89.20
30999;DHT22;20549;50.042;8.968;2022-12-18T00:55:07;-4.70;89.30
30999;DHT22;20549;50.042;8.968;2022-12-18T00:57:34;-4.70;89.30
30999;DHT22;20549;50.042;8.968;2022-12-18T01:00:00;-4.60;89.30
30999;DHT22;20549;50.042;8.968;2022-12-18T01:02:27;-4.60;89.20
30999;DHT22;20549;50.042;8.968;2022-12-18T01:04:54;-4.60;89.10
30999;DHT22;20549;50.042;8.968;2022-12-18T01:07:20;-4.60;89.30
30999;DHT22;20549;50.042;8.968;2022-12-18T01:09:47;-4.60;88.70
30999;DHT22;20549;50.042;8.968;2022-12-18T01:12:13;-4.60;88.50
30999;DHT22;20549;50.042;8.968;2022-12-18T01:14:40;-4.60;88.40
30999;DHT22;20549;50.042;8.968;2022-12-18T01:17:07;-4.70;88.10
30999;DHT22;20549;50.042;8.968;2022-12-18T01:19:33;-4.70;88.10
30999;DHT22;20549;50.042;8.968;2022-12-18T01:22:00;-4.70;87.90
30999;DHT22;20549;50.042;8.968;2022-12-18T01:24:26;-4.80;87.80
30999;DHT22;20549;50.042;8.968;2022-12-18T01:26:53;-4.80;87.90
30999;DHT22;20549;50.042;8.968;2022-12-18T01:29:19;-4.80;87.90
30999;DHT22;20549;50.042;8.968;2022-12-18T01:31:46;-4.90;88.00
30999;DHT22;20549;50.042;8.968;2022-12-18T01:34:13;-4.90;88.10
30999;DHT22;20549;50.042;8.968;2022-12-18T01:36:39;-4.90;88.10
30999;DHT22;20549;50.042;8.968;2022-12-18T01:39:08;-4.90;88.90
30999;DHT22;20549;50.042;8.968;2022-12-18T01:41:33;-5.00;88.10
30999;DHT22;20549;50.042;8.968;2022-12-18T01:44:54;-5.00;88.10
30999;DHT22;20549;50.042;8.968;2022-12-18T01:47:23;-5.00;88.10
30999;DHT22;20549;50.042;8.968;2022-12-18T01:49:47;-5.10;87.90
30999;DHT22;20549;50.042;8.968;2022-12-18T01:52:14;-5.10;87.90
30999;DHT22;20549;50.042;8.968;2022-12-18T01:54:40;-5.20;87.80
30999;DHT22;20549;50.042;8.968;2022-12-18T01:57:07;-5.20;87.80
30999;DHT22;20549;50.042;8.968;2022-12-18T01:59:33;-5.20;87.70
30999;DHT22;20549;50.042;8.968;2022-12-18T02:02:00;-5.30;87.60
30999;DHT22;20549;50.042;8.968;2022-12-18T02:04:27;-5.30;87.70
30999;DHT22;20549;50.042;8.968;2022-12-18T02:09:31;-5.40;87.70
30999;DHT22;20549;50.042;8.968;2022-12-18T02:14:55;-5.50;87.60
30999;DHT22;20549;50.042;8.968;2022-12-18T02:17:34;-5.50;87.70
30999;DHT22;20549;50.042;8.968;2022-12-18T02:22:58;-5.60;87.70
30999;DHT22;20549;50.042;8.968;2022-12-18T02:25:24;-5.70;87.70
30999;DHT22;20549;50.042;8.968;2022-12-18T02:27:47;-5.70;87.70
30999;DHT22;20549;50.042;8.968;2022-12-18T02:30:13;-5.80;87.60
30999;DHT22;20549;50.042;8.968;2022-12-18T02:32:40;-5.80;87.50
30999;DHT22;20549;50.042;8.968;2022-12-18T02:35:08;-5.80;87.50
30999;DHT22;20549;50.042;8.968;2022-12-18T02:37:33;-5.90;87.20
30999;DHT22;20549;50.042;8.968;2022-12-18T02:39:59;-5.90;87.10
30999;DHT22;20549;50.042;8.968;2022-12-18T02:42:26;-6.00;86.80
30999;DHT22;20549;50.042;8.968;2022-12-18T02:44:56;-6.00;86.70
30999;DHT22;20549;50.042;8.968;2022-12-18T02:47:24;-6.10;86.60
30999;DHT22;20549;50.042;8.968;2022-12-18T02:50:02;-6.10;86.50
30999;DHT22;20549;50.042;8.968;2022-12-18T02:55:38;-6.30;86.60
30999;DHT22;20549;50.042;8.968;2022-12-18T02:58:05;-6.30;86.50
30999;DHT22;20549;50.042;8.968;2022-12-18T03:00:41;-6.40;86.50
30999;DHT22;20549;50.042;8.968;2022-12-18T03:03:13;-6.50;87.10
30999;DHT22;20549;50.042;8.968;2022-12-18T03:05:41;-6.50;86.40
30999;DHT22;20549;50.042;8.968;2022-12-18T03:08:14;-6.50;86.60
30999;DHT22;20549;50.042;8.968;2022-12-18T03:10:41;-6.60;86.40
30999;DHT22;20549;50.042;8.968;2022-12-18T03:13:08;-6.70;86.50
30999;DHT22;20549;50.042;8.968;2022-12-18T03:15:37;-6.60;86.70
30999;DHT22;20549;50.042;8.968;2022-12-18T03:18:03;-6.70;86.90
30999;DHT22;20549;50.042;8.968;2022-12-18T03:20:29;-6.70;87.00
30999;DHT22;20549;50.042;8.968;2022-12-18T03:22:57;-6.70;87.10
30999;DHT22;20549;50.042;8.968;2022-12-18T03:25:21;-6.70;87.20
30999;DHT22;20549;50.042;8.968;2022-12-18T03:27:49;-6.70;87.20
30999;DHT22;20549;50.042;8.968;2022-12-18T03:30:15;-6.80;87.20
30999;DHT22;20549;50.042;8.968;2022-12-18T03:32:47;-6.80;87.20
30999;DHT22;20549;50.042;8.968;2022-12-18T03:35:11;-6.80;87.20
30999;DHT22;20549;50.042;8.968;2022-12-18T03:37:37;-6.80;87.20
30999;DHT22;20549;50.042;8.968;2022-12-18T03:40:04;-6.80;87.10
30999;DHT22;20549;50.042;8.968;2022-12-18T03:42:47;-6.80;87.10
30999;DHT22;20549;50.042;8.968;2022-12-18T03:45:23;-6.90;87.00
30999;DHT22;20549;50.042;8.968;2022-12-18T03:47:55;-6.90;86.90
30999;DHT22;20549;50.042;8.968;2022-12-18T03:53:00;-6.90;86.80
30999;DHT22;20549;50.042;8.968;2022-12-18T03:55:25;-7.00;86.60
30999;DHT22;20549;50.042;8.968;2022-12-18T03:57:52;-7.00;86.60
30999;DHT22;20549;50.042;8.968;2022-12-18T04:00:19;-7.10;86.60
30999;DHT22;20549;50.042;8.968;2022-12-18T04:02:52;-7.10;86.50
30999;DHT22;20549;50.042;8.968;2022-12-18T04:05:14;-7.10;86.50
30999;DHT22;20549;50.042;8.968;2022-12-18T04:07:41;-7.10;86.50
30999;DHT22;20549;50.042;8.968;2022-12-18T04:10:08;-7.20;86.50
30999;DHT22;20549;50.042;8.968;2022-12-18T04:12:34;-7.20;86.60
30999;DHT22;20549;50.042;8.968;2022-12-18T04:15:01;-7.20;86.80
30999;DHT22;20549;50.042;8.968;2022-12-18T04:17:27;-7.20;86.90
30999;DHT22;20549;50.042;8.968;2022-12-18T04:19:54;-7.20;86.90
30999;DHT22;20549;50.042;8.968;2022-12-18T04:22:21;-7.20;86.80
30999;DHT22;20549;50.042;8.968;2022-12-18T04:24:47;-7.20;86.70
30999;DHT22;20549;50.042;8.968;2022-12-18T04:27:14;-7.20;86.70
30999;DHT22;20549;50.042;8.968;2022-12-18T04:29:40;-7.20;86.50
30999;DHT22;20549;50.042;8.968;2022-12-18T04:32:07;-7.30;86.40
30999;DHT22;20549;50.042;8.968;2022-12-18T04:34:33;-7.20;86.40
30999;DHT22;20549;50.042;8.968;2022-12-18T04:37:00;-7.30;86.20
30999;DHT22;20549;50.042;8.968;2022-12-18T04:39:27;-7.30;86.20
30999;DHT22;20549;50.042;8.968;2022-12-18T04:41:53;-7.30;86.10
30999;DHT22;20549;50.042;8.968;2022-12-18T04:44:20;-7.40;86.00
30999;DHT22;20549;50.042;8.968;2022-12-18T04:46:46;-7.40;85.90
30999;DHT22;20549;50.042;8.968;2022-12-18T04:49:13;-7.40;85.90
30999;DHT22;20549;50.042;8.968;2022-12-18T04:51:40;-7.40;85.90
30999;DHT22;20549;50.042;8.968;2022-12-18T04:54:06;-7.50;85.70
30999;DHT22;20549;50.042;8.968;2022-12-18T04:56:33;-7.50;85.80
30999;DHT22;20549;50.042;8.968;2022-12-18T04:58:59;-7.50;85.90
30999;DHT22;20549;50.042;8.968;2022-12-18T05:01:26;-7.50;86.00
30999;DHT22;20549;50.042;8.968;2022-12-18T05:03:53;-7.50;86.20
30999;DHT22;20549;50.042;8.968;2022-12-18T05:06:19;-7.50;86.40
30999;DHT22;20549;50.042;8.968;2022-12-18T05:08:46;-7.50;86.40
30999;DHT22;20549;50.042;8.968;2022-12-18T05:11:13;-7.50;86.50
30999;DHT22;20549;50.042;8.968;2022-12-18T05:13:39;-7.50;86.60
30999;DHT22;20549;50.042;8.968;2022-12-18T05:16:06;-7.50;86.70
30999;DHT22;20549;50.042;8.968;2022-12-18T05:18:32;-7.50;86.70
30999;DHT22;20549;50.042;8.968;2022-12-18T05:20:59;-7.50;86.70
30999;DHT22;20549;50.042;8.968;2022-12-18T05:23:26;-7.50;86.70
30999;DHT22;20549;50.042;8.968;2022-12-18T05:28:19;-7.60;86.70
30999;DHT22;20549;50.042;8.968;2022-12-18T05:30:51;-7.60;86.70
30999;DHT22;20549;50.042;8.968;2022-12-18T05:33:18;-7.60;86.70
30999;DHT22;20549;50.042;8.968;2022-12-18T05:35:44;-7.60;86.60
30999;DHT22;20549;50.042;8.968;2022-12-18T05:38:11;-7.50;86.50
30999;DHT22;20549;50.042;8.968;2022-12-18T05:40:37;-7.60;86.40
30999;DHT22;20549;50.042;8.968;2022-12-18T05:43:05;-7.60;86.20
30999;DHT22;20549;50.042;8.968;2022-12-18T05:45:31;-7.60;86.10
30999;DHT22;20549;50.042;8.968;2022-12-18T05:47:58;-7.60;86.00
30999;DHT22;20549;50.042;8.968;2022-12-18T05:50:25;-7.70;85.90
30999;DHT22;20549;50.042;8.968;2022-12-18T05:52:51;-7.70;85.80
30999;DHT22;20549;50.042;8.968;2022-12-18T05:55:18;-7.70;85.90
30999;DHT22;20549;50.042;8.968;2022-12-18T05:57:44;-7.70;85.80
30999;DHT22;20549;50.042;8.968;2022-12-18T06:00:11;-7.70;85.80
30999;DHT22;20549;50.042;8.968;2022-12-18T06:02:38;-7.80;85.70
30999;DHT22;20549;50.042;8.968;2022-12-18T06:05:04;-7.80;85.80
30999;DHT22;20549;50.042;8.968;2022-12-18T06:07:31;-7.80;85.90
30999;DHT22;20549;50.042;8.968;2022-12-18T06:09:57;-7.80;85.20
30999;DHT22;20549;50.042;8.968;2022-12-18T06:12:24;-7.80;86.00
30999;DHT22;20549;50.042;8.968;2022-12-18T06:14:51;-7.80;86.20
30999;DHT22;20549;50.042;8.968;2022-12-18T06:17:17;-7.80;86.30
30999;DHT22;20549;50.042;8.968;2022-12-18T06:19:44;-7.80;86.40
30999;DHT22;20549;50.042;8.968;2022-12-18T06:22:10;-7.80;86.50
30999;DHT22;20549;50.042;8.968;2022-12-18T06:24:37;-7.80;86.50
30999;DHT22;20549;50.042;8.968;2022-12-18T06:27:04;-7.80;86.50
30999;DHT22;20549;50.042;8.968;2022-12-18T06:29:30;-7.80;86.50
30999;DHT22;20549;50.042;8.968;2022-12-18T06:31:57;-7.80;86.30
30999;DHT22;20549;50.042;8.968;2022-12-18T06:34:23;-7.80;86.10
30999;DHT22;20549;50.042;8.968;2022-12-18T06:36:50;-7.80;85.90
30999;DHT22;20549;50.042;8.968;2022-12-18T06:39:16;-7.80;85.80
30999;DHT22;20549;50.042;8.968;2022-12-18T06:41:43;-7.90;85.70
30999;DHT22;20549;50.042;8.968;2022-12-18T06:44:10;-7.90;85.70
30999;DHT22;20549;50.042;8.968;2022-12-18T06:46:36;-7.90;85.80
30999;DHT22;20549;50.042;8.968;2022-12-18T06:49:03;-7.90;85.80
30999;DHT22;20549;50.042;8.968;2022-12-18T06:51:29;-7.90;85.90
30999;DHT22;20549;50.042;8.968;2022-12-18T06:53:56;-7.90;85.80
30999;DHT22;20549;50.042;8.968;2022-12-18T06:56:23;-7.90;85.80
30999;DHT22;20549;50.042;8.968;2022-12-18T06:58:50;-7.90;85.70
30999;DHT22;20549;50.042;8.968;2022-12-18T07:01:17;-8.00;85.60
30999;DHT22;20549;50.042;8.968;2022-12-18T07:03:43;-8.00;85.50
30999;DHT22;20549;50.042;8.968;2022-12-18T07:06:14;-8.00;85.60
30999;DHT22;20549;50.042;8.968;2022-12-18T07:08:40;-8.00;85.50
30999;DHT22;20549;50.042;8.968;2022-12-18T07:11:06;-8.00;85.40
30999;DHT22;20549;50.042;8.968;2022-12-18T07:13:33;-8.00;85.40
30999;DHT22;20549;50.042;8.968;2022-12-18T07:18:32;-8.00;85.40
30999;DHT22;20549;50.042;8.968;2022-12-18T07:21:02;-8.10;85.30
30999;DHT22;20549;50.042;8.968;2022-12-18T07:23:25;-8.10;85.30
30999;DHT22;20549;50.042;8.968;2022-12-18T07:25:52;-8.10;85.40
30999;DHT22;20549;50.042;8.968;2022-12-18T07:28:18;-8.10;85.50
30999;DHT22;20549;50.042;8.968;2022-12-18T07:30:45;-8.10;85.60
30999;DHT22;20549;50.042;8.968;2022-12-18T07:33:11;-8.00;85.80
30999;DHT22;20549;50.042;8.968;2022-12-18T07:35:38;-8.00;86.00
30999;DHT22;20549;50.042;8.968;2022-12-18T07:38:05;-8.00;86.20
30999;DHT22;20549;50.042;8.968;2022-12-18T07:40:31;-7.90;86.40
30999;DHT22;20549;50.042;8.968;2022-12-18T07:42:58;-7.90;86.50
30999;DHT22;20549;50.042;8.968;2022-12-18T07:45:24;-7.80;86.70
30999;DHT22;20549;50.042;8.968;2022-12-18T07:47:51;-7.80;86.90
30999;DHT22;20549;50.042;8.968;2022-12-18T07:50:18;-7.70;87.10
30999;DHT22;20549;50.042;8.968;2022-12-18T07:52:44;-7.60;87.50
30999;DHT22;20549;50.042;8.968;2022-12-18T07:55:11;-7.60;87.50
30999;DHT22;20549;50.042;8.968;2022-12-18T07:57:37;-7.50;87.80
30999;DHT22;20549;50.042;8.968;2022-12-18T08:00:04;-7.30;88.10
30999;DHT22;20549;50.042;8.968;2022-12-18T08:02:31;-7.20;88.90
30999;DHT22;20549;50.042;8.968;2022-12-18T08:04:57;-6.90;90.30
30999;DHT22;20549;50.042;8.968;2022-12-18T08:07:24;-6.70;91.00
30999;DHT22;20549;50.042;8.968;2022-12-18T08:09:50;-6.40;91.50
30999;DHT22;20549;50.042;8.968;2022-12-18T08:12:17;-6.10;91.30
30999;DHT22;20549;50.042;8.968;2022-12-18T08:14:44;-5.90;90.70
30999;DHT22;20549;50.042;8.968;2022-12-18T08:17:10;-5.70;89.70
30999;DHT22;20549;50.042;8.968;2022-12-18T08:19:37;-5.60;88.20
30999;DHT22;20549;50.042;8.968;2022-12-18T08:22:03;-5.60;87.00
30999;DHT22;20549;50.042;8.968;2022-12-18T08:24:30;-5.60;86.10
30999;DHT22;20549;50.042;8.968;2022-12-18T08:26:57;-5.60;86.20
30999;DHT22;20549;50.042;8.968;2022-12-18T08:29:23;-5.60;85.10
30999;DHT22;20549;50.042;8.968;2022-12-18T08:31:50;-5.60;84.70
30999;DHT22;20549;50.042;8.968;2022-12-18T08:34:16;-5.60;84.60
30999;DHT22;20549;50.042;8.968;2022-12-18T08:36:43;-5.60;84.40
30999;DHT22;20549;50.042;8.968;2022-12-18T08:39:10;-5.60;84.70
30999;DHT22;20549;50.042;8.968;2022-12-18T08:41:36;-5.50;85.70
30999;DHT22;20549;50.042;8.968;2022-12-18T08:44:03;-5.40;87.10
30999;DHT22;20549;50.042;8.968;2022-12-18T08:46:47;-5.30;87.80
30999;DHT22;20549;50.042;8.968;2022-12-18T08:49:14;-5.20;87.80
30999;DHT22;20549;50.042;8.968;2022-12-18T08:51:41;-5.10;87.50
30999;DHT22;20549;50.042;8.968;2022-12-18T08:54:08;-4.90;87.50
30999;DHT22;20549;50.042;8.968;2022-12-18T08:56:34;-4.80;88.10
30999;DHT22;20549;50.042;8.968;2022-12-18T08:59:00;-4.60;88.40
30999;DHT22;20549;50.042;8.968;2022-12-18T09:01:27;-4.50;88.00
30999;DHT22;20549;50.042;8.968;2022-12-18T09:03:54;-4.40;87.50
30999;DHT22;20549;50.042;8.968;2022-12-18T09:06:21;-4.30;86.80
30999;DHT22;20549;50.042;8.968;2022-12-18T09:08:47;-4.30;86.40
30999;DHT22;20549;50.042;8.968;2022-12-18T09:11:15;-4.20;86.80
30999;DHT22;20549;50.042;8.968;2022-12-18T09:13:40;-4.20;86.00
30999;DHT22;20549;50.042;8.968;2022-12-18T09:16:07;-4.20;85.90
30999;DHT22;20549;50.042;8.968;2022-12-18T09:18:33;-4.20;86.00
30999;DHT22;20549;50.042;8.968;2022-12-18T09:21:00;-4.10;86.20
30999;DHT22;20549;50.042;8.968;2022-12-18T09:23:26;-4.10;86.50
30999;DHT22;20549;50.042;8.968;2022-12-18T09:25:58;-4.00;86.70
30999;DHT22;20549;50.042;8.968;2022-12-18T09:28:19;-4.00;86.80
30999;DHT22;20549;50.042;8.968;2022-12-18T09:30:47;-3.90;87.10
30999;DHT22;20549;50.042;8.968;2022-12-18T09:33:13;-3.80;87.20
30999;DHT22;20549;50.042;8.968;2022-12-18T09:35:40;-3.70;87.70
30999;DHT22;20549;50.042;8.968;2022-12-18T09:38:06;-3.60;88.10
30999;DHT22;20549;50.042;8.968;2022-12-18T09:40:45;-3.50;88.50
30999;DHT22;20549;50.042;8.968;2022-12-18T09:43:09;-3.50;88.70
30999;DHT22;20549;50.042;8.968;2022-12-18T09:45:42;-3.30;89.90
30999;DHT22;20549;50.042;8.968;2022-12-18T09:48:11;-3.20;89.50
30999;DHT22;20549;50.042;8.968;2022-12-18T09:50:37;-3.10;89.60
30999;DHT22;20549;50.042;8.968;2022-12-18T09:53:05;-3.00;89.70
30999;DHT22;20549;50.042;8.968;2022-12-18T09:55:36;-2.90;89.70
30999;DHT22;20549;50.042;8.968;2022-12-18T09:58:13;-2.80;89.80
30999;DHT22;20549;50.042;8.968;2022-12-18T10:00:38;-2.70;90.00
30999;DHT22;20549;50.042;8.968;2022-12-18T10:03:11;-2.60;90.00
30999;DHT22;20549;50.042;8.968;2022-12-18T10:08:34;-2.40;90.10
30999;DHT22;20549;50.042;8.968;2022-12-18T10:11:20;-2.30;90.20
30999;DHT22;20549;50.042;8.968;2022-12-18T10:13:40;-2.20;90.20
30999;DHT22;20549;50.042;8.968;2022-12-18T10:19:07;-2.00;90.20
30999;DHT22;20549;50.042;8.968;2022-12-18T10:21:31;-1.90;90.20
30999;DHT22;20549;50.042;8.968;2022-12-18T10:26:31;-1.70;90.20
30999;DHT22;20549;50.042;8.968;2022-12-18T10:28:56;-1.60;90.10
30999;DHT22;20549;50.042;8.968;2022-12-18T10:31:23;-1.50;90.10
30999;DHT22;20549;50.042;8.968;2022-12-18T10:33:50;-1.40;90.10
30999;DHT22;20549;50.042;8.968;2022-12-18T10:36:16;-1.40;90.00
30999;DHT22;20549;50.042;8.968;2022-12-18T10:38:43;-1.30;90.00
30999;DHT22;20549;50.042;8.968;2022-12-18T10:43:45;-1.10;90.00
30999;DHT22;20549;50.042;8.968;2022-12-18T10:46:12;-1.00;90.00
30999;DHT22;20549;50.042;8.968;2022-12-18T10:48:47;-0.90;89.80
30999;DHT22;20549;50.042;8.968;2022-12-18T10:51:08;-0.90;89.60
30999;DHT22;20549;50.042;8.968;2022-12-18T10:53:35;-0.80;89.40
30999;DHT22;20549;50.042;8.968;2022-12-18T10:56:02;-0.70;89.30
30999;DHT22;20549;50.042;8.968;2022-12-18T10:58:33;-0.70;89.10
30999;DHT22;20549;50.042;8.968;2022-12-18T11:03:34;-0.60;88.60
30999;DHT22;20549;50.042;8.968;2022-12-18T11:06:02;-0.60;88.50
30999;DHT22;20549;50.042;8.968;2022-12-18T11:08:28;-0.50;88.80
30999;DHT22;20549;50.042;8.968;2022-12-18T11:10:55;-0.50;88.80
30999;DHT22;20549;50.042;8.968;2022-12-18T11:13:25;-0.40;88.90
30999;DHT22;20549;50.042;8.968;2022-12-18T11:15:51;-0.40;88.90
30999;DHT22;20549;50.042;8.968;2022-12-18T11:18:33;-0.30;89.20
30999;DHT22;20549;50.042;8.968;2022-12-18T11:21:05;-0.20;89.20
30999;DHT22;20549;50.042;8.968;2022-12-18T11:23:28;-0.10;89.40
30999;DHT22;20549;50.042;8.968;2022-12-18T11:26:03;0.00;89.70
30999;DHT22;20549;50.042;8.968;2022-12-18T11:28:52;0.10;90.10
30999;DHT22;20549;50.042;8.968;2022-12-18T11:31:19;0.20;90.40
30999;DHT22;20549;50.042;8.968;2022-12-18T11:34:09;0.40;90.40
30999;DHT22;20549;50.042;8.968;2022-12-18T11:36:36;0.60;90.50
30999;DHT22;20549;50.042;8.968;2022-12-18T11:39:03;0.70;90.30
30999;DHT22;20549;50.042;8.968;2022-12-18T11:41:52;0.80;90.10
30999;DHT22;20549;50.042;8.968;2022-12-18T11:44:36;1.00;89.60
30999;DHT22;20549;50.042;8.968;2022-12-18T11:47:02;1.10;88.90
30999;DHT22;20549;50.042;8.968;2022-12-18T11:49:30;1.10;88.20
30999;DHT22;20549;50.042;8.968;2022-12-18T11:51:55;1.20;87.70
30999;DHT22;20549;50.042;8.968;2022-12-18T11:54:20;1.20;87.40
30999;DHT22;20549;50.042;8.968;2022-12-18T11:56:57;1.20;87.10
30999;DHT22;20549;50.042;8.968;2022-12-18T12:01:48;1.30;86.80
30999;DHT22;20549;50.042;8.968;2022-12-18T12:04:33;1.30;86.50
30999;DHT22;20549;50.042;8.968;2022-12-18T12:12:38;1.30;85.70
30999;DHT22;20549;50.042;8.968;2022-12-18T12:17:45;1.20;85.50
30999;DHT22;20549;50.042;8.968;2022-12-18T12:23:37;1.20;85.40
30999;DHT22;20549;50.042;8.968;2022-12-18T12:26:06;1.20;85.50
30999;DHT22;20549;50.042;8.968;2022-12-18T12:28:42;1.10;85.40
30999;DHT22;20549;50.042;8.968;2022-12-18T12:31:09;1.10;85.50
30999;DHT22;20549;50.042;8.968;2022-12-18T12:36:08;1.10;85.70
30999;DHT22;20549;50.042;8.968;2022-12-18T12:39:15;1.10;85.70
30999;DHT22;20549;50.042;8.968;2022-12-18T12:41:08;1.20;85.70
30999;DHT22;20549;50.042;8.968;2022-12-18T12:43:35;1.20;85.70
30999;DHT22;20549;50.042;8.968;2022-12-18T12:46:06;1.20;86.00
30999;DHT22;20549;50.042;8.968;2022-12-18T12:48:42;1.20;85.90
30999;DHT22;20549;50.042;8.968;2022-12-18T12:51:14;1.20;85.70
30999;DHT22;20549;50.042;8.968;2022-12-18T12:53:39;1.20;85.60
30999;DHT22;20549;50.042;8.968;2022-12-18T12:56:05;1.20;85.40
30999;DHT22;20549;50.042;8.968;2022-12-18T13:01:37;1.20;85.30
30999;DHT22;20549;50.042;8.968;2022-12-18T13:04:08;1.20;85.50
30999;DHT22;20549;50.042;8.968;2022-12-18T13:06:58;1.20;85.70
30999;DHT22;20549;50.042;8.968;2022-12-18T13:09:22;1.20;86.00
30999;DHT22;20549;50.042;8.968;2022-12-18T13:11:49;1.20;86.00
30999;DHT22;20549;50.042;8.968;2022-12-18T13:14:37;1.20;86.20
30999;DHT22;20549;50.042;8.968;2022-12-18T13:19:51;1.30;86.40
30999;DHT22;20549;50.042;8.968;2022-12-18T13:22:22;1.40;86.40
30999;DHT22;20549;50.042;8.968;2022-12-18T13:24:48;1.40;86.40
30999;DHT22;20549;50.042;8.968;2022-12-18T13:33:05;1.50;86.40
30999;DHT22;20549;50.042;8.968;2022-12-18T13:37:44;1.50;86.60
30999;DHT22;20549;50.042;8.968;2022-12-18T13:48:23;1.70;86.50
30999;DHT22;20549;50.042;8.968;2022-12-18T13:51:02;1.70;86.40
30999;DHT22;20549;50.042;8.968;2022-12-18T13:53:42;1.70;86.30
30999;DHT22;20549;50.042;8.968;2022-12-18T13:56:06;1.80;86.30
30999;DHT22;20549;50.042;8.968;2022-12-18T13:58:32;1.80;86.30
30999;DHT22;20549;50.042;8.968;2022-12-18T14:00:59;1.80;86.20
30999;DHT22;20549;50.042;8.968;2022-12-18T14:03:26;1.90;86.30
30999;DHT22;20549;50.042;8.968;2022-12-18T14:05:56;1.80;85.90
30999;DHT22;20549;50.042;8.968;2022-12-18T14:08:19;1.80;85.60
30999;DHT22;20549;50.042;8.968;2022-12-18T14:10:46;1.80;85.40
30999;DHT22;20549;50.042;8.968;2022-12-18T14:13:45;1.80;85.30
30999;DHT22;20549;50.042;8.968;2022-12-18T14:15:45;1.80;85.10
30999;DHT22;20549;50.042;8.968;2022-12-18T14:21:02;1.80;84.80
30999;DHT22;20549;50.042;8.968;2022-12-18T14:23:34;1.80;84.80
30999;DHT22;20549;50.042;8.968;2022-12-18T14:26:17;1.70;84.60
30999;DHT22;20549;50.042;8.968;2022-12-18T14:28:29;1.60;84.40
30999;DHT22;20549;50.042;8.968;2022-12-18T14:30:56;1.50;84.30
30999;DHT22;20549;50.042;8.968;2022-12-18T14:33:23;1.40;84.10
30999;DHT22;20549;50.042;8.968;2022-12-18T14:35:56;1.30;84.10
30999;DHT22;20549;50.042;8.968;2022-12-18T14:38:37;1.30;84.20
30999;DHT22;20549;50.042;8.968;2022-12-18T14:41:06;1.20;84.30
30999;DHT22;20549;50.042;8.968;2022-12-18T14:43:32;1.10;84.40
30999;DHT22;20549;50.042;8.968;2022-12-18T14:45:58;1.00;84.60
30999;DHT22;20549;50.042;8.968;2022-12-18T14:48:35;0.90;84.60
30999;DHT22;20549;50.042;8.968;2022-12-18T14:51:01;0.80;84.80
30999;DHT22;20549;50.042;8.968;2022-12-18T14:53:33;0.80;85.00
30999;DHT22;20549;50.042;8.968;2022-12-18T14:55:59;0.70;85.20
30999;DHT22;20549;50.042;8.968;2022-12-18T14:58:25;0.60;85.30
30999;DHT22;20549;50.042;8.968;2022-12-18T15:00:52;0.60;85.40
30999;DHT22;20549;50.042;8.968;2022-12-18T15:03:19;0.50;85.60
30999;DHT22;20549;50.042;8.968;2022-12-18T15:05:45;0.50;85.70
30999;DHT22;20549;50.042;8.968;2022-12-18T15:08:27;0.40;85.90
30999;DHT22;20549;50.042;8.968;2022-12-18T15:10:46;0.40;85.90
30999;DHT22;20549;50.042;8.968;2022-12-18T15:13:09;0.40;86.00
30999;DHT22;20549;50.042;8.968;2022-12-18T15:25:56;0.20;86.50
30999;DHT22;20549;50.042;8.968;2022-12-18T15:28:23;0.20;86.60
30999;DHT22;20549;50.042;8.968;2022-12-18T15:31:20;0.10;86.70
30999;DHT22;20549;50.042;8.968;2022-12-18T15:33:34;0.10;86.90
30999;DHT22;20549;50.042;8.968;2022-12-18T15:36:07;0.10;87.10
30999;DHT22;20549;50.042;8.968;2022-12-18T15:38:29;0.00;87.20
30999;DHT22;20549;50.042;8.968;2022-12-18T15:40:55;0.10;87.40
30999;DHT22;20549;50.042;8.968;2022-12-18T15:43:22;0.10;87.50
30999;DHT22;20549;50.042;8.968;2022-12-18T15:46:04;0.00;87.60
30999;DHT22;20549;50.042;8.968;2022-12-18T15:48:31;0.10;87.80
30999;DHT22;20549;50.042;8.968;2022-12-18T15:50:56;0.00;87.80
30999;DHT22;20549;50.042;8.968;2022-12-18T15:53:23;0.00;87.80
30999;DHT22;20549;50.042;8.968;2022-12-18T15:55:50;0.10;88.00
30999;DHT22;20549;50.042;8.968;2022-12-18T15:58:34;0.00;88.00
30999;DHT22;20549;50.042;8.968;2022-12-18T16:01:01;0.10;88.20
30999;DHT22;20549;50.042;8.968;2022-12-18T16:03:27;0.10;88.20
30999;DHT22;20549;50.042;8.968;2022-12-18T16:05:54;0.10;88.30
30999;DHT22;20549;50.042;8.968;2022-12-18T16:08:20;0.10;88.40
30999;DHT22;20549;50.042;8.968;2022-12-18T16:10:47;0.10;88.50
30999;DHT22;20549;50.042;8.968;2022-12-18T16:13:15;0.10;88.60
30999;DHT22;20549;50.042;8.968;2022-12-18T16:15:40;0.10;88.70
30999;DHT22;20549;50.042;8.968;2022-12-18T16:18:07;0.20;88.90
30999;DHT22;20549;50.042;8.968;2022-12-18T16:20:33;0.20;88.90
30999;DHT22;20549;50.042;8.968;2022-12-18T16:23:00;0.20;89.10
30999;DHT22;20549;50.042;8.968;2022-12-18T16:25:27;0.20;89.10
30999;DHT22;20549;50.042;8.968;2022-12-18T16:27:53;0.20;89.90
30999;DHT22;20549;50.042;8.968;2022-12-18T16:30:24;0.30;89.20
30999;DHT22;20549;50.042;8.968;2022-12-18T16:32:46;0.30;89.20
30999;DHT22;20549;50.042;8.968;2022-12-18T16:35:13;0.30;89.10
30999;DHT22;20549;50.042;8.968;2022-12-18T16:37:40;0.30;89.10
30999;DHT22;20549;50.042;8.968;2022-12-18T16:40:06;0.40;89.10
30999;DHT22;20549;50.042;8.968;2022-12-18T16:42:33;0.40;89.10
30999;DHT22;20549;50.042;8.968;2022-12-18T16:44:59;0.40;89.10
30999;DHT22;20549;50.042;8.968;2022-12-18T16:47:26;0.40;89.10
30999;DHT22;20549;50.042;8.968;2022-12-18T16:49:52;0.40;89.20
30999;DHT22;20549;50.042;8.968;2022-12-18T16:52:19;0.40;89.10
30999;DHT22;20549;50.042;8.968;2022-12-18T16:54:46;0.40;89.00
30999;DHT22;20549;50.042;8.968;2022-12-18T16:57:13;0.50;89.10
30999;DHT22;20549;50.042;8.968;2022-12-18T16:59:39;0.50;89.00
30999;DHT22;20549;50.042;8.968;2022-12-18T17:02:06;0.50;89.00
30999;DHT22;20549;50.042;8.968;2022-12-18T17:04:32;0.50;89.00